Time;durP1;ratioP1;P1;durP2;ratioP2;P2;SDS_P1;SDS_P2;PMS_P1;PMS_P2;Temp;Humidity;BMP_temperature;BMP_pressure;BME280_temperature;BME280_humidity;BME280_pressure;Samples;Min_cycle;Max_cycle;Signal;HPM_P1;HPM_P2
2022/01/24 00:09:16;;;;;;;0.55;0.55;;;;;;;14.41;60.51;103123.63;20719537;28;20050;-83
2022/01/24 00:29:24;;;;;;;0.68;0.57;;;;;;;14.77;60.35;103186.63;20750384;28;20488;-82
2022/01/24 00:39:26;;;;;;;0.50;0.50;;;;;;;14.76;60.84;103192.91;20715812;28;20046;-82
2022/01/24 00:59:49;;;;;;;0.80;0.52;;;;;;;14.71;60.34;103179.66;20733159;28;20056;-83
2022/01/24 01:20:12;;;;;;;0.52;0.50;;;;;;;14.62;60.26;103162.13;20746438;28;20041;-82
2022/01/24 01:30:19;;;;;;;0.70;0.70;;;;;;;14.44;60.39;103138.69;20712780;28;20053;-82
2022/01/24 02:00:57;;;;;;;1.88;1.05;;;;;;;14.69;60.69;103162.75;20743700;28;20088;-83
2022/01/24 02:11:00;;;;;;;0.70;0.70;;;;;;;14.32;60.29;103095.34;20725436;28;20049;-83
2022/01/24 02:21:13;;;;;;;1.10;0.90;;;;;;;14.40;60.27;103116.50;20742230;28;20057;-83
2022/01/24 02:52:08;;;;;;;1.35;0.93;;;;;;;14.36;60.09;103096.97;20742030;28;20104;-83
2022/01/24 03:02:10;;;;;;;0.98;0.70;;;;;;;14.49;60.08;103117.94;20719643;28;20053;-82
2022/01/24 03:12:24;;;;;;;0.93;0.82;;;;;;;14.32;60.29;103092.69;20757216;28;20057;-83
2022/01/24 03:22:25;;;;;;;1.10;1.00;;;;;;;14.63;59.84;103126.34;20723610;28;20460;-82
2022/01/24 03:32:27;;;;;;;1.20;1.10;;;;;;;14.29;59.74;103066.00;20737292;28;20348;-83
2022/01/24 03:42:29;;;;;;;1.35;1.00;;;;;;;14.56;59.89;103107.88;20720082;28;20503;-82
2022/01/24 03:52:31;;;;;;;1.15;0.90;;;;;;;14.48;60.00;103111.72;20735849;28;20057;-83
2022/01/24 04:02:35;;;;;;;1.42;1.13;;;;;;;14.31;59.74;103090.94;20752391;28;20049;-83
2022/01/24 04:12:39;;;;;;;1.13;0.98;;;;;;;14.11;60.10;103043.47;20716953;28;20085;-83
2022/01/24 04:22:59;;;;;;;1.73;1.15;;;;;;;14.59;59.94;103116.69;20733591;28;20042;-82
2022/01/24 04:33:01;;;;;;;1.00;0.90;;;;;;;14.38;59.85;103080.88;20749041;28;20128;-82
2022/01/24 04:43:28;;;;;;;1.50;1.00;;;;;;;14.19;60.07;103051.22;20783533;28;20054;-82
2022/01/24 04:53:46;;;;;;;1.27;1.17;;;;;;;14.58;59.71;103106.00;20798366;28;20451;-83
2022/01/24 05:03:48;;;;;;;1.25;1.00;;;;;;;14.30;60.13;103051.69;20811337;28;20046;-82
2022/01/24 05:24:11;;;;;;;1.20;1.10;;;;;;;14.89;59.75;103108.34;20827979;28;20407;-82
2022/01/24 05:34:12;;;;;;;0.88;0.80;;;;;;;14.86;59.72;103108.47;20809711;28;20537;-81
2022/01/24 05:44:14;;;;;;;0.70;0.70;;;;;;;15.03;59.41;103098.88;20776573;28;20049;-82
2022/01/24 05:54:16;;;;;;;0.85;0.80;;;;;;;15.19;59.40;103102.66;20807797;28;20038;-81
2022/01/24 06:04:18;;;;;;;0.80;0.80;;;;;;;15.37;59.27;103121.59;20807460;28;20465;-82
2022/01/24 06:14:20;;;;;;;0.85;0.82;;;;;;;15.25;59.20;103097.97;20806802;28;20054;-82
2022/01/24 06:24:22;;;;;;;0.98;0.88;;;;;;;15.34;59.39;103106.50;20806814;28;20057;-81
2022/01/24 06:34:44;;;;;;;0.80;0.80;;;;;;;15.30;59.17;103112.94;20794819;28;20137;-82
2022/01/24 06:44:46;;;;;;;0.57;0.57;;;;;;;15.36;59.14;103111.81;20788882;28;20050;-81
2022/01/24 06:54:47;;;;;;;0.77;0.77;;;;;;;15.40;59.03;103123.28;20804831;28;20046;-82
2022/01/24 07:04:49;;;;;;;1.40;1.08;;;;;;;15.49;58.72;103131.84;20788503;28;20051;-81
2022/01/24 07:14:55;;;;;;;1.55;1.33;;;;;;;15.05;59.15;103068.34;20804566;28;20044;-82
2022/01/24 07:24:56;;;;;;;1.65;1.20;;;;;;;15.47;58.89;103122.09;20787942;28;20061;-82
2022/01/24 07:34:58;;;;;;;1.65;1.40;;;;;;;15.30;59.06;103090.59;20803771;28;20407;-84
2022/01/24 07:45:00;;;;;;;1.65;1.40;;;;;;;15.32;58.98;103089.59;20808867;28;20152;-85
2022/01/24 07:55:03;;;;;;;2.33;1.67;;;;;;;15.44;58.71;103120.38;20817354;28;20465;-84
2022/01/24 08:05:06;;;;;;;2.70;1.75;;;;;;;15.33;58.59;103091.34;20785117;28;20080;-85
2022/01/24 08:15:11;;;;;;;2.08;1.70;;;;;;;15.45;59.13;103121.28;20815759;28;20076;-85
2022/01/24 08:25:14;;;;;;;3.73;2.50;;;;;;;15.42;58.75;103129.47;20815469;28;20115;-84
2022/01/24 08:35:17;;;;;;;3.78;2.70;;;;;;;15.33;58.95;103104.78;20814410;28;20045;-84
2022/01/24 08:55:39;;;;;;;4.70;2.70;;;;;;;15.67;58.74;103153.44;20815022;28;20141;-84
2022/01/24 09:05:42;;;;;;;4.07;3.05;;;;;;;15.53;59.08;103140.59;20811988;28;20435;-84
2022/01/24 09:15:44;;;;;;;4.97;3.42;;;;;;;15.68;58.64;103163.25;20811074;28;20045;-84
2022/01/24 09:25:46;;;;;;;3.70;2.92;;;;;;;15.29;58.66;103096.91;20778065;28;20048;-84
2022/01/24 09:35:48;;;;;;;4.18;3.05;;;;;;;15.70;59.04;103156.00;20809619;28;20137;-84
2022/01/24 09:45:50;;;;;;;4.13;3.13;;;;;;;15.62;59.06;103145.56;20826597;28;20479;-84
2022/01/24 09:55:53;;;;;;;4.80;3.72;;;;;;;15.40;59.02;103116.09;20808117;28;20398;-86
2022/01/24 10:05:56;;;;;;;4.20;3.40;;;;;;;15.68;59.04;103147.13;20789905;28;20604;-86
2022/01/24 10:16:30;;;;;;;4.78;3.42;;;;;;;15.08;58.88;103059.31;20774783;28;20057;-86
2022/01/24 10:26:32;;;;;;;5.22;3.42;;;;;;;15.05;59.21;103040.69;20773537;28;20483;-86
2022/01/24 10:36:54;;;;;;;5.38;4.10;;;;;;;14.52;59.15;102965.03;20789533;28;20045;-82
2022/01/24 10:47:33;;;;;;;4.53;3.55;;;;;;;15.13;59.11;103057.31;20823100;28;20053;-82
2022/01/24 10:57:35;;;;;;;5.20;4.15;;;;;;;14.61;59.01;102963.78;20681471;28;20128;-82
2022/01/24 11:08:04;;;;;;;4.25;3.55;;;;;;;14.86;59.14;103006.56;20804485;28;20104;-82
2022/01/24 11:18:06;;;;;;;4.75;4.05;;;;;;;15.20;59.08;103053.44;20808745;28;20049;-82
2022/01/24 11:28:09;;;;;;;4.50;3.67;;;;;;;14.91;58.96;103022.47;20820660;28;20107;-83
2022/01/24 11:38:42;;;;;;;4.97;4.07;;;;;;;15.03;59.01;103015.72;20819093;28;20487;-82
2022/01/24 11:49:02;;;;;;;5.20;4.20;;;;;;;14.55;59.10;102932.75;20798311;28;20446;-82
2022/01/24 11:59:23;;;;;;;4.82;3.90;;;;;;;14.62;59.18;102930.69;20817113;28;20103;-82
2022/01/24 12:09:25;;;;;;;4.82;4.07;;;;;;;14.98;58.84;102998.94;20816429;28;20061;-83
2022/01/24 12:19:31;;;;;;;5.55;4.45;;;;;;;15.72;59.13;103132.63;20793721;28;20041;-85
2022/01/24 12:29:41;;;;;;;5.93;4.60;;;;;;;14.63;59.12;102936.00;20793275;28;20057;-84
2022/01/24 12:39:50;;;;;;;5.18;3.85;;;;;;;14.96;59.04;102965.94;20798192;28;20046;-84
2022/01/24 12:49:54;;;;;;;4.97;4.03;;;;;;;15.27;58.94;103002.16;20797852;28;20041;-85
2022/01/24 12:59:57;;;;;;;4.10;3.63;;;;;;;15.79;58.92;103083.06;20812405;28;20111;-84
2022/01/24 13:10:14;;;;;;;5.72;4.13;;;;;;;15.02;59.04;102969.25;20795572;28;20053;-84
2022/01/24 13:20:41;;;;;;;4.38;3.50;;;;;;;15.43;58.88;103030.06;20811577;28;20144;-85
2022/01/24 13:30:48;;;;;;;4.30;3.83;;;;;;;15.84;58.89;103076.63;20784663;28;20391;-85
2022/01/24 13:41:07;;;;;;;4.35;3.53;;;;;;;15.37;58.76;102987.41;20792176;28;20092;-85
2022/01/24 13:51:12;;;;;;;4.47;3.42;;;;;;;14.57;58.70;102845.09;20792655;28;20053;-84
2022/01/24 14:01:14;;;;;;;4.13;3.73;;;;;;;14.57;58.65;102845.09;20807955;28;20061;-84
2022/01/24 14:11:19;;;;;;;3.57;3.23;;;;;;;14.98;58.44;102926.50;20791620;28;20056;-84
2022/01/24 14:21:21;;;;;;;3.30;3.00;;;;;;;14.89;59.18;102904.53;20823935;28;20340;-85
2022/01/24 14:31:23;;;;;;;4.05;3.15;;;;;;;15.37;58.83;102982.03;20823625;28;20056;-85
2022/01/24 14:41:48;;;;;;;3.83;3.38;;;;;;;15.10;58.80;102941.19;20805667;28;20569;-85
2022/01/24 14:51:52;;;;;;;3.25;2.92;;;;;;;14.93;58.79;102922.22;20793202;28;20049;-85
2022/01/24 15:01:55;;;;;;;3.25;2.83;;;;;;;14.77;58.96;102897.03;20805888;28;20490;-84
2022/01/24 15:11:59;;;;;;;3.40;3.00;;;;;;;15.45;58.91;103025.50;20805019;28;20136;-84
2022/01/24 15:32:25;;;;;;;3.13;2.83;;;;;;;15.48;58.81;103025.41;20742309;28;20064;-84
2022/01/24 15:42:44;;;;;;;3.55;3.03;;;;;;;14.86;58.87;102912.72;20802115;28;20052;-85
2022/01/24 15:52:46;;;;;;;3.03;2.72;;;;;;;14.99;58.64;102941.66;20801606;28;20045;-84
2022/01/24 16:02:54;;;;;;;3.40;2.70;;;;;;;15.04;58.61;102979.91;20799859;28;20495;-85
2022/01/24 16:12:57;;;;;;;2.67;2.45;;;;;;;15.40;58.71;103053.50;20801762;28;20053;-85
2022/01/24 16:33:04;;;;;;;;;;;;;;;15.88;58.48;103113.16;20815737;28;20053;-84
2022/01/24 16:53:14;;;;;;;3.00;2.63;;;;;;;15.17;58.73;103018.69;20797420;28;20052;-82
2022/01/24 17:03:16;;;;;;;3.10;2.80;;;;;;;14.66;58.56;102908.16;20812425;28;20076;-83
2022/01/24 17:13:22;;;;;;;3.03;2.70;;;;;;;15.68;58.74;103088.06;20780077;28;20387;-83
2022/01/24 17:23:25;;;;;;;2.67;2.47;;;;;;;15.66;58.71;103092.63;20811067;28;20525;-82
2022/01/24 17:33:29;;;;;;;3.22;2.80;;;;;;;15.80;58.71;103149.28;20810486;28;20057;-82
2022/01/24 17:43:31;;;;;;;2.90;2.70;;;;;;;15.57;58.74;103075.09;20809267;28;20049;-82
2022/01/24 17:53:33;;;;;;;3.30;2.65;;;;;;;15.08;58.70;102992.25;20792652;28;20227;-83
2022/01/24 18:03:35;;;;;;;3.20;2.67;;;;;;;15.64;58.58;103094.50;20807660;28;20061;-86
2022/01/24 18:13:38;;;;;;;3.40;3.05;;;;;;;15.36;58.61;103063.50;20807248;28;20063;-84
2022/01/24 18:23:40;;;;;;;3.40;3.10;;;;;;;15.38;58.49;103072.34;20790394;28;20057;-85
2022/01/24 18:33:42;;;;;;;3.78;3.33;;;;;;;15.19;58.64;103051.69;20805072;28;20148;-85
2022/01/24 18:43:45;;;;;;;3.47;3.17;;;;;;;15.42;58.47;103111.53;20822791;28;20049;-84
2022/01/24 18:53:47;;;;;;;4.05;3.65;;;;;;;15.54;58.80;103134.31;20772457;28;20111;-85
2022/01/24 19:03:49;;;;;;;3.90;3.53;;;;;;;15.48;59.06;103132.78;20788228;28;20484;-85
2022/01/24 19:13:51;;;;;;;5.30;3.22;;;;;;;15.31;59.02;103114.69;20804568;28;20127;-86
2022/01/24 19:23:53;;;;;;;3.47;3.17;;;;;;;15.13;58.70;103088.63;20788104;28;20380;-83
2022/01/24 19:33:55;;;;;;;4.28;3.88;;;;;;;15.41;59.26;103152.72;20821182;28;20052;-83
2022/01/24 19:43:56;;;;;;;3.95;3.55;;;;;;;15.29;59.01;103131.78;20799000;28;20120;-83
2022/01/24 19:53:59;;;;;;;3.85;3.45;;;;;;;15.41;59.14;103147.38;20818139;28;20521;-84
2022/01/24 20:04:00;;;;;;;4.25;3.55;;;;;;;15.14;59.08;103102.00;20817054;28;20486;-83
2022/01/24 20:14:03;;;;;;;3.88;3.45;;;;;;;15.33;58.76;103145.03;20816424;28;20298;-84
2022/01/24 20:24:05;;;;;;;4.38;3.53;;;;;;;15.38;58.99;103147.50;20766769;28;20575;-83
2022/01/24 20:34:07;;;;;;;3.95;3.58;;;;;;;15.26;58.46;103116.72;20814779;28;20041;-83
2022/01/24 20:44:09;;;;;;;4.00;3.60;;;;;;;14.41;58.50;102968.19;20831414;28;20053;-83
2022/01/24 20:54:11;;;;;;;3.83;3.50;;;;;;;15.44;58.49;103141.88;20830424;28;20038;-83
2022/01/24 21:04:13;;;;;;;4.55;3.70;;;;;;;15.45;58.59;103159.72;20812686;28;20049;-84
2022/01/24 21:14:15;;;;;;;3.97;3.35;;;;;;;15.45;58.57;103142.75;20811836;28;20463;-84
2022/01/24 21:24:17;;;;;;;3.92;3.45;;;;;;;15.09;58.64;103077.16;20811268;28;20489;-84
2022/01/24 21:44:24;;;;;;;3.85;3.45;;;;;;;15.46;57.92;103165.97;20810079;28;20099;-84
2022/01/24 21:54:25;;;;;;;4.57;3.70;;;;;;;15.01;58.24;103100.72;20808512;28;20037;-84
2022/01/24 22:04:27;;;;;;;4.13;3.70;;;;;;;15.13;58.15;103094.88;20806926;28;20111;-84
2022/01/24 22:14:31;;;;;;;4.32;3.92;;;;;;;15.42;57.92;103145.56;20807373;28;20049;-83
2022/01/24 22:24:33;;;;;;;3.80;3.30;;;;;;;15.46;58.23;103156.09;20824030;28;20041;-83
2022/01/24 22:34:35;;;;;;;5.00;4.10;;;;;;;15.46;58.21;103166.84;20768999;28;20053;-83
2022/01/24 22:44:36;;;;;;;4.65;4.00;;;;;;;15.39;57.76;103138.50;20789421;28;20095;-83
2022/01/24 22:54:39;;;;;;;4.35;3.47;;;;;;;15.38;58.01;103139.44;20822641;28;20042;-83
2022/01/24 23:04:42;;;;;;;4.43;3.83;;;;;;;15.45;57.78;103154.34;20805126;28;20061;-83
2022/01/24 23:25:07;;;;;;;4.53;3.67;;;;;;;15.32;58.05;103135.22;20790189;28;20049;-83
2022/01/24 23:45:33;;;;;;;4.30;3.75;;;;;;;15.46;58.13;103148.03;20807772;28;20414;-84
2022/01/24 23:55:35;;;;;;;4.15;3.65;;;;;;;15.44;57.83;103147.22;20802257;28;20415;-83
